sensor_id;sensor_type;location;lat;lon;timestamp;P1;durP1;ratioP1;P2;durP2;ratioP2
18249;SDS011;27980;52.126;5.572;2023-05-07T00:01:37;4.00;;;3.50;;
18249;SDS011;27980;52.126;5.572;2023-05-07T00:04:04;4.90;;;3.45;;
18249;SDS011;27980;52.126;5.572;2023-05-07T00:06:31;4.18;;;3.13;;
18249;SDS011;27980;52.126;5.572;2023-05-07T00:08:58;5.68;;;3.67;;
18249;SDS011;27980;52.126;5.572;2023-05-07T00:11:25;5.47;;;3.75;;
18249;SDS011;27980;52.126;5.572;2023-05-07T00:13:53;5.97;;;3.63;;
18249;SDS011;27980;52.126;5.572;2023-05-07T00:16:19;3.60;;;3.22;;
18249;SDS011;27980;52.126;5.572;2023-05-07T00:18:50;4.05;;;3.20;;
18249;SDS011;27980;52.126;5.572;2023-05-07T00:21:16;3.75;;;3.35;;
18249;SDS011;27980;52.126;5.572;2023-05-07T00:23:43;4.00;;;3.30;;
18249;SDS011;27980;52.126;5.572;2023-05-07T00:26:10;5.85;;;3.53;;
18249;SDS011;27980;52.126;5.572;2023-05-07T00:28:36;5.68;;;3.55;;
18249;SDS011;27980;52.126;5.572;2023-05-07T00:31:02;6.10;;;3.33;;
18249;SDS011;27980;52.126;5.572;2023-05-07T00:33:29;3.65;;;3.25;;
18249;SDS011;27980;52.126;5.572;2023-05-07T00:35:56;3.38;;;3.08;;
18249;SDS011;27980;52.126;5.572;2023-05-07T00:38:24;4.70;;;3.75;;
18249;SDS011;27980;52.126;5.572;2023-05-07T00:40:51;5.28;;;3.55;;
18249;SDS011;27980;52.126;5.572;2023-05-07T00:43:17;4.03;;;3.65;;
18249;SDS011;27980;52.126;5.572;2023-05-07T00:45:44;5.65;;;3.20;;
18249;SDS011;27980;52.126;5.572;2023-05-07T00:48:10;3.75;;;3.40;;
18249;SDS011;27980;52.126;5.572;2023-05-07T00:50:36;4.97;;;3.58;;
18249;SDS011;27980;52.126;5.572;2023-05-07T00:53:04;3.65;;;3.35;;
18249;SDS011;27980;52.126;5.572;2023-05-07T00:55:31;4.10;;;3.50;;
18249;SDS011;27980;52.126;5.572;2023-05-07T00:57:57;3.85;;;3.45;;
18249;SDS011;27980;52.126;5.572;2023-05-07T01:00:23;3.88;;;3.50;;
18249;SDS011;27980;52.126;5.572;2023-05-07T01:02:50;3.75;;;3.42;;
18249;SDS011;27980;52.126;5.572;2023-05-07T01:05:17;6.18;;;4.05;;
18249;SDS011;27980;52.126;5.572;2023-05-07T01:07:47;4.10;;;3.63;;
18249;SDS011;27980;52.126;5.572;2023-05-07T01:10:16;4.45;;;3.65;;
18249;SDS011;27980;52.126;5.572;2023-05-07T01:12:47;4.32;;;3.92;;
18249;SDS011;27980;52.126;5.572;2023-05-07T01:15:14;4.70;;;4.00;;
18249;SDS011;27980;52.126;5.572;2023-05-07T01:17:41;4.82;;;4.35;;
18249;SDS011;27980;52.126;5.572;2023-05-07T01:20:09;6.00;;;4.43;;
18249;SDS011;27980;52.126;5.572;2023-05-07T01:22:38;6.20;;;4.45;;
18249;SDS011;27980;52.126;5.572;2023-05-07T01:25:07;5.65;;;4.10;;
18249;SDS011;27980;52.126;5.572;2023-05-07T01:27:34;7.13;;;4.38;;
18249;SDS011;27980;52.126;5.572;2023-05-07T01:30:01;6.45;;;4.90;;
18249;SDS011;27980;52.126;5.572;2023-05-07T01:32:29;5.55;;;4.30;;
18249;SDS011;27980;52.126;5.572;2023-05-07T01:34:58;6.28;;;4.60;;
18249;SDS011;27980;52.126;5.572;2023-05-07T01:37:26;6.05;;;4.20;;
18249;SDS011;27980;52.126;5.572;2023-05-07T01:39:54;5.28;;;4.45;;
18249;SDS011;27980;52.126;5.572;2023-05-07T01:42:21;8.07;;;4.97;;
18249;SDS011;27980;52.126;5.572;2023-05-07T01:44:47;6.80;;;4.85;;
18249;SDS011;27980;52.126;5.572;2023-05-07T01:47:15;7.95;;;5.15;;
18249;SDS011;27980;52.126;5.572;2023-05-07T01:49:42;6.10;;;5.15;;
18249;SDS011;27980;52.126;5.572;2023-05-07T01:52:09;10.45;;;5.22;;
18249;SDS011;27980;52.126;5.572;2023-05-07T01:54:36;7.47;;;4.60;;
18249;SDS011;27980;52.126;5.572;2023-05-07T01:57:04;6.30;;;5.18;;
18249;SDS011;27980;52.126;5.572;2023-05-07T01:59:30;6.30;;;5.05;;
18249;SDS011;27980;52.126;5.572;2023-05-07T02:01:57;9.20;;;5.70;;
18249;SDS011;27980;52.126;5.572;2023-05-07T02:04:24;8.80;;;4.70;;
18249;SDS011;27980;52.126;5.572;2023-05-07T02:06:51;6.90;;;5.32;;
18249;SDS011;27980;52.126;5.572;2023-05-07T02:09:18;7.85;;;5.13;;
18249;SDS011;27980;52.126;5.572;2023-05-07T02:11:45;8.73;;;4.95;;
18249;SDS011;27980;52.126;5.572;2023-05-07T02:14:15;7.00;;;5.43;;
18249;SDS011;27980;52.126;5.572;2023-05-07T02:16:41;7.65;;;4.88;;
18249;SDS011;27980;52.126;5.572;2023-05-07T02:19:08;6.07;;;5.30;;
18249;SDS011;27980;52.126;5.572;2023-05-07T02:21:34;7.72;;;5.32;;
18249;SDS011;27980;52.126;5.572;2023-05-07T02:24:03;9.07;;;5.35;;
18249;SDS011;27980;52.126;5.572;2023-05-07T02:26:29;10.30;;;5.68;;
18249;SDS011;27980;52.126;5.572;2023-05-07T02:28:56;6.90;;;5.28;;
18249;SDS011;27980;52.126;5.572;2023-05-07T02:31:24;9.50;;;6.03;;
18249;SDS011;27980;52.126;5.572;2023-05-07T02:33:50;10.73;;;6.28;;
18249;SDS011;27980;52.126;5.572;2023-05-07T02:36:17;8.45;;;6.22;;
18249;SDS011;27980;52.126;5.572;2023-05-07T02:38:46;7.55;;;6.43;;
18249;SDS011;27980;52.126;5.572;2023-05-07T02:41:12;6.40;;;5.70;;
18249;SDS011;27980;52.126;5.572;2023-05-07T02:43:39;9.35;;;6.10;;
18249;SDS011;27980;52.126;5.572;2023-05-07T02:46:08;9.75;;;6.55;;
18249;SDS011;27980;52.126;5.572;2023-05-07T02:48:36;8.27;;;6.05;;
18249;SDS011;27980;52.126;5.572;2023-05-07T02:51:03;7.40;;;6.15;;
18249;SDS011;27980;52.126;5.572;2023-05-07T02:53:30;7.47;;;6.18;;
18249;SDS011;27980;52.126;5.572;2023-05-07T02:55:59;9.27;;;6.80;;
18249;SDS011;27980;52.126;5.572;2023-05-07T02:58:26;8.07;;;6.43;;
18249;SDS011;27980;52.126;5.572;2023-05-07T03:00:54;9.32;;;6.22;;
18249;SDS011;27980;52.126;5.572;2023-05-07T03:03:20;7.00;;;5.85;;
18249;SDS011;27980;52.126;5.572;2023-05-07T03:05:50;8.60;;;5.82;;
18249;SDS011;27980;52.126;5.572;2023-05-07T03:08:17;6.93;;;5.82;;
18249;SDS011;27980;52.126;5.572;2023-05-07T03:10:43;7.53;;;5.88;;
18249;SDS011;27980;52.126;5.572;2023-05-07T03:13:09;8.82;;;6.90;;
18249;SDS011;27980;52.126;5.572;2023-05-07T03:15:36;10.13;;;6.28;;
18249;SDS011;27980;52.126;5.572;2023-05-07T03:18:02;7.78;;;6.68;;
18249;SDS011;27980;52.126;5.572;2023-05-07T03:20:28;6.13;;;5.30;;
18249;SDS011;27980;52.126;5.572;2023-05-07T03:23:01;8.88;;;6.68;;
18249;SDS011;27980;52.126;5.572;2023-05-07T03:25:27;7.93;;;6.65;;
18249;SDS011;27980;52.126;5.572;2023-05-07T03:27:55;10.55;;;6.72;;
18249;SDS011;27980;52.126;5.572;2023-05-07T03:30:21;7.57;;;6.28;;
18249;SDS011;27980;52.126;5.572;2023-05-07T03:32:50;9.85;;;6.93;;
18249;SDS011;27980;52.126;5.572;2023-05-07T03:35:16;9.57;;;6.63;;
18249;SDS011;27980;52.126;5.572;2023-05-07T03:37:42;8.60;;;6.75;;
18249;SDS011;27980;52.126;5.572;2023-05-07T03:40:12;8.30;;;6.53;;
18249;SDS011;27980;52.126;5.572;2023-05-07T03:42:38;9.20;;;7.25;;
18249;SDS011;27980;52.126;5.572;2023-05-07T03:45:05;8.63;;;7.13;;
18249;SDS011;27980;52.126;5.572;2023-05-07T03:47:33;10.07;;;6.95;;
18249;SDS011;27980;52.126;5.572;2023-05-07T03:50:00;10.07;;;6.90;;
18249;SDS011;27980;52.126;5.572;2023-05-07T03:52:26;8.70;;;6.90;;
18249;SDS011;27980;52.126;5.572;2023-05-07T03:54:53;9.77;;;6.90;;
18249;SDS011;27980;52.126;5.572;2023-05-07T03:57:21;9.52;;;6.97;;
18249;SDS011;27980;52.126;5.572;2023-05-07T03:59:49;8.85;;;7.10;;
18249;SDS011;27980;52.126;5.572;2023-05-07T04:02:15;8.48;;;6.78;;
18249;SDS011;27980;52.126;5.572;2023-05-07T04:04:42;10.00;;;6.88;;
18249;SDS011;27980;52.126;5.572;2023-05-07T04:07:08;14.35;;;7.45;;
18249;SDS011;27980;52.126;5.572;2023-05-07T04:09:35;7.57;;;6.38;;
18249;SDS011;27980;52.126;5.572;2023-05-07T04:12:02;11.13;;;7.25;;
18249;SDS011;27980;52.126;5.572;2023-05-07T04:14:31;10.25;;;6.93;;
18249;SDS011;27980;52.126;5.572;2023-05-07T04:16:58;9.10;;;6.50;;
18249;SDS011;27980;52.126;5.572;2023-05-07T04:19:24;9.25;;;6.70;;
18249;SDS011;27980;52.126;5.572;2023-05-07T04:21:51;9.35;;;6.90;;
18249;SDS011;27980;52.126;5.572;2023-05-07T04:24:17;7.82;;;6.88;;
18249;SDS011;27980;52.126;5.572;2023-05-07T04:26:44;9.07;;;6.53;;
18249;SDS011;27980;52.126;5.572;2023-05-07T04:29:10;10.65;;;7.20;;
18249;SDS011;27980;52.126;5.572;2023-05-07T04:31:38;6.70;;;6.10;;
18249;SDS011;27980;52.126;5.572;2023-05-07T04:34:05;10.40;;;7.45;;
18249;SDS011;27980;52.126;5.572;2023-05-07T04:36:32;8.77;;;6.78;;
18249;SDS011;27980;52.126;5.572;2023-05-07T04:38:58;9.63;;;7.28;;
18249;SDS011;27980;52.126;5.572;2023-05-07T04:41:26;9.95;;;7.10;;
18249;SDS011;27980;52.126;5.572;2023-05-07T04:43:54;10.18;;;7.25;;
18249;SDS011;27980;52.126;5.572;2023-05-07T04:46:23;9.70;;;6.68;;
18249;SDS011;27980;52.126;5.572;2023-05-07T04:48:51;12.93;;;7.20;;
18249;SDS011;27980;52.126;5.572;2023-05-07T04:51:17;11.50;;;7.68;;
18249;SDS011;27980;52.126;5.572;2023-05-07T04:53:44;13.05;;;7.55;;
18249;SDS011;27980;52.126;5.572;2023-05-07T04:56:10;9.02;;;7.32;;
18249;SDS011;27980;52.126;5.572;2023-05-07T04:58:37;8.93;;;7.38;;
18249;SDS011;27980;52.126;5.572;2023-05-07T05:01:03;9.82;;;7.95;;
18249;SDS011;27980;52.126;5.572;2023-05-07T05:03:30;12.23;;;9.18;;
18249;SDS011;27980;52.126;5.572;2023-05-07T05:05:57;10.80;;;8.77;;
18249;SDS011;27980;52.126;5.572;2023-05-07T05:08:24;11.23;;;8.38;;
18249;SDS011;27980;52.126;5.572;2023-05-07T05:10:51;13.27;;;9.15;;
18249;SDS011;27980;52.126;5.572;2023-05-07T05:13:17;12.57;;;8.52;;
18249;SDS011;27980;52.126;5.572;2023-05-07T05:15:44;12.40;;;8.88;;
18249;SDS011;27980;52.126;5.572;2023-05-07T05:18:13;12.88;;;9.23;;
18249;SDS011;27980;52.126;5.572;2023-05-07T05:20:39;14.35;;;9.23;;
18249;SDS011;27980;52.126;5.572;2023-05-07T05:23:07;12.75;;;9.57;;
18249;SDS011;27980;52.126;5.572;2023-05-07T05:25:33;12.55;;;9.20;;
18249;SDS011;27980;52.126;5.572;2023-05-07T05:28:01;16.00;;;9.30;;
18249;SDS011;27980;52.126;5.572;2023-05-07T05:30:27;14.05;;;8.88;;
18249;SDS011;27980;52.126;5.572;2023-05-07T05:32:54;14.40;;;9.10;;
18249;SDS011;27980;52.126;5.572;2023-05-07T05:35:21;11.43;;;9.02;;
18249;SDS011;27980;52.126;5.572;2023-05-07T05:37:49;13.70;;;9.75;;
18249;SDS011;27980;52.126;5.572;2023-05-07T05:40:17;12.93;;;10.07;;
18249;SDS011;27980;52.126;5.572;2023-05-07T05:42:43;13.85;;;9.88;;
18249;SDS011;27980;52.126;5.572;2023-05-07T05:45:10;15.10;;;9.93;;
18249;SDS011;27980;52.126;5.572;2023-05-07T05:47:38;16.38;;;9.77;;
18249;SDS011;27980;52.126;5.572;2023-05-07T05:50:05;11.30;;;9.85;;
18249;SDS011;27980;52.126;5.572;2023-05-07T05:52:32;15.63;;;10.40;;
18249;SDS011;27980;52.126;5.572;2023-05-07T05:54:59;13.13;;;9.48;;
18249;SDS011;27980;52.126;5.572;2023-05-07T05:57:26;15.20;;;9.95;;
18249;SDS011;27980;52.126;5.572;2023-05-07T05:59:53;13.68;;;9.85;;
18249;SDS011;27980;52.126;5.572;2023-05-07T06:02:19;12.45;;;9.07;;
18249;SDS011;27980;52.126;5.572;2023-05-07T06:04:46;12.00;;;9.50;;
18249;SDS011;27980;52.126;5.572;2023-05-07T06:07:15;13.02;;;9.07;;
18249;SDS011;27980;52.126;5.572;2023-05-07T06:09:41;11.13;;;8.88;;
18249;SDS011;27980;52.126;5.572;2023-05-07T06:12:08;13.65;;;9.25;;
18249;SDS011;27980;52.126;5.572;2023-05-07T06:14:35;12.75;;;9.95;;
18249;SDS011;27980;52.126;5.572;2023-05-07T06:17:02;13.23;;;9.50;;
18249;SDS011;27980;52.126;5.572;2023-05-07T06:19:28;11.73;;;9.63;;
18249;SDS011;27980;52.126;5.572;2023-05-07T06:21:54;13.55;;;9.82;;
18249;SDS011;27980;52.126;5.572;2023-05-07T06:24:22;15.18;;;9.88;;
18249;SDS011;27980;52.126;5.572;2023-05-07T06:26:49;11.05;;;9.30;;
18249;SDS011;27980;52.126;5.572;2023-05-07T06:29:15;13.63;;;10.13;;
18249;SDS011;27980;52.126;5.572;2023-05-07T06:31:43;13.98;;;10.65;;
18249;SDS011;27980;52.126;5.572;2023-05-07T06:34:11;14.40;;;9.88;;
18249;SDS011;27980;52.126;5.572;2023-05-07T06:36:39;13.80;;;9.95;;
18249;SDS011;27980;52.126;5.572;2023-05-07T06:39:05;13.13;;;10.00;;
18249;SDS011;27980;52.126;5.572;2023-05-07T06:41:32;13.00;;;8.98;;
18249;SDS011;27980;52.126;5.572;2023-05-07T06:43:59;13.00;;;9.70;;
18249;SDS011;27980;52.126;5.572;2023-05-07T06:46:26;11.35;;;8.90;;
18249;SDS011;27980;52.126;5.572;2023-05-07T06:48:54;12.20;;;9.25;;
18249;SDS011;27980;52.126;5.572;2023-05-07T06:51:21;11.18;;;8.98;;
18249;SDS011;27980;52.126;5.572;2023-05-07T06:53:48;9.98;;;8.25;;
18249;SDS011;27980;52.126;5.572;2023-05-07T06:56:15;11.02;;;8.73;;
18249;SDS011;27980;52.126;5.572;2023-05-07T06:58:41;11.85;;;8.88;;
18249;SDS011;27980;52.126;5.572;2023-05-07T07:01:07;11.15;;;8.68;;
18249;SDS011;27980;52.126;5.572;2023-05-07T07:03:34;11.50;;;8.73;;
18249;SDS011;27980;52.126;5.572;2023-05-07T07:06:03;12.57;;;8.90;;
18249;SDS011;27980;52.126;5.572;2023-05-07T07:08:30;11.30;;;8.18;;
18249;SDS011;27980;52.126;5.572;2023-05-07T07:10:59;10.13;;;8.90;;
18249;SDS011;27980;52.126;5.572;2023-05-07T07:13:26;12.07;;;9.00;;
18249;SDS011;27980;52.126;5.572;2023-05-07T07:15:52;13.38;;;10.13;;
18249;SDS011;27980;52.126;5.572;2023-05-07T07:18:18;14.30;;;9.35;;
18249;SDS011;27980;52.126;5.572;2023-05-07T07:20:47;13.30;;;10.30;;
18249;SDS011;27980;52.126;5.572;2023-05-07T07:23:15;14.18;;;9.93;;
18249;SDS011;27980;52.126;5.572;2023-05-07T07:25:42;14.20;;;10.00;;
18249;SDS011;27980;52.126;5.572;2023-05-07T07:28:08;13.73;;;10.15;;
18249;SDS011;27980;52.126;5.572;2023-05-07T07:30:35;14.80;;;11.38;;
18249;SDS011;27980;52.126;5.572;2023-05-07T07:33:02;13.55;;;10.30;;
18249;SDS011;27980;52.126;5.572;2023-05-07T07:35:31;13.05;;;10.10;;
18249;SDS011;27980;52.126;5.572;2023-05-07T07:37:59;14.75;;;11.10;;
18249;SDS011;27980;52.126;5.572;2023-05-07T07:40:27;13.63;;;10.98;;
18249;SDS011;27980;52.126;5.572;2023-05-07T07:42:57;16.38;;;10.55;;
18249;SDS011;27980;52.126;5.572;2023-05-07T07:45:24;14.35;;;11.40;;
18249;SDS011;27980;52.126;5.572;2023-05-07T07:47:51;12.93;;;10.27;;
18249;SDS011;27980;52.126;5.572;2023-05-07T07:50:20;13.95;;;10.63;;
18249;SDS011;27980;52.126;5.572;2023-05-07T07:52:48;13.10;;;9.85;;
18249;SDS011;27980;52.126;5.572;2023-05-07T07:55:14;16.65;;;10.82;;
18249;SDS011;27980;52.126;5.572;2023-05-07T07:57:44;13.75;;;10.48;;
18249;SDS011;27980;52.126;5.572;2023-05-07T08:00:11;16.77;;;10.52;;
18249;SDS011;27980;52.126;5.572;2023-05-07T08:02:38;13.70;;;11.18;;
18249;SDS011;27980;52.126;5.572;2023-05-07T08:05:05;15.65;;;10.80;;
18249;SDS011;27980;52.126;5.572;2023-05-07T08:07:32;14.07;;;10.63;;
18249;SDS011;27980;52.126;5.572;2023-05-07T08:10:01;13.65;;;10.70;;
18249;SDS011;27980;52.126;5.572;2023-05-07T08:12:27;14.25;;;10.80;;
18249;SDS011;27980;52.126;5.572;2023-05-07T08:14:55;13.90;;;10.32;;
18249;SDS011;27980;52.126;5.572;2023-05-07T08:17:24;12.98;;;10.45;;
18249;SDS011;27980;52.126;5.572;2023-05-07T08:19:50;13.40;;;10.20;;
18249;SDS011;27980;52.126;5.572;2023-05-07T08:22:17;13.30;;;10.43;;
18249;SDS011;27980;52.126;5.572;2023-05-07T08:24:44;13.77;;;10.50;;
18249;SDS011;27980;52.126;5.572;2023-05-07T08:27:13;13.38;;;9.98;;
18249;SDS011;27980;52.126;5.572;2023-05-07T08:29:39;14.90;;;11.70;;
18249;SDS011;27980;52.126;5.572;2023-05-07T08:32:08;14.80;;;11.05;;
18249;SDS011;27980;52.126;5.572;2023-05-07T08:34:36;14.75;;;10.85;;
18249;SDS011;27980;52.126;5.572;2023-05-07T08:37:02;14.90;;;11.35;;
18249;SDS011;27980;52.126;5.572;2023-05-07T08:39:29;15.05;;;11.55;;
18249;SDS011;27980;52.126;5.572;2023-05-07T08:41:56;13.07;;;10.10;;
18249;SDS011;27980;52.126;5.572;2023-05-07T08:44:25;14.40;;;10.25;;
18249;SDS011;27980;52.126;5.572;2023-05-07T08:46:53;17.58;;;11.38;;
18249;SDS011;27980;52.126;5.572;2023-05-07T08:49:28;14.25;;;10.93;;
18249;SDS011;27980;52.126;5.572;2023-05-07T08:51:55;12.55;;;10.45;;
18249;SDS011;27980;52.126;5.572;2023-05-07T08:54:21;14.30;;;11.77;;
18249;SDS011;27980;52.126;5.572;2023-05-07T08:56:48;14.98;;;11.55;;
18249;SDS011;27980;52.126;5.572;2023-05-07T08:59:15;14.13;;;11.02;;
18249;SDS011;27980;52.126;5.572;2023-05-07T09:01:42;16.65;;;11.57;;
18249;SDS011;27980;52.126;5.572;2023-05-07T09:04:09;16.92;;;12.20;;
18249;SDS011;27980;52.126;5.572;2023-05-07T09:06:39;19.38;;;11.65;;
18249;SDS011;27980;52.126;5.572;2023-05-07T09:09:07;16.88;;;11.95;;
18249;SDS011;27980;52.126;5.572;2023-05-07T09:11:33;18.80;;;11.65;;
18249;SDS011;27980;52.126;5.572;2023-05-07T09:14:00;18.58;;;12.23;;
18249;SDS011;27980;52.126;5.572;2023-05-07T09:16:28;18.27;;;11.80;;
18249;SDS011;27980;52.126;5.572;2023-05-07T09:18:57;20.25;;;13.23;;
18249;SDS011;27980;52.126;5.572;2023-05-07T09:21:39;18.63;;;12.65;;
18249;SDS011;27980;52.126;5.572;2023-05-07T09:24:05;18.45;;;12.65;;
18249;SDS011;27980;52.126;5.572;2023-05-07T09:26:32;19.15;;;13.15;;
18249;SDS011;27980;52.126;5.572;2023-05-07T09:28:59;18.23;;;13.38;;
18249;SDS011;27980;52.126;5.572;2023-05-07T09:31:27;18.85;;;12.73;;
18249;SDS011;27980;52.126;5.572;2023-05-07T09:33:55;20.23;;;12.65;;
18249;SDS011;27980;52.126;5.572;2023-05-07T09:36:21;16.88;;;12.55;;
18249;SDS011;27980;52.126;5.572;2023-05-07T09:38:49;18.27;;;12.70;;
18249;SDS011;27980;52.126;5.572;2023-05-07T09:41:16;18.80;;;12.23;;
18249;SDS011;27980;52.126;5.572;2023-05-07T09:43:44;16.83;;;12.60;;
18249;SDS011;27980;52.126;5.572;2023-05-07T09:46:11;19.65;;;11.93;;
18249;SDS011;27980;52.126;5.572;2023-05-07T09:48:39;18.83;;;13.38;;
18249;SDS011;27980;52.126;5.572;2023-05-07T09:51:06;15.90;;;11.93;;
18249;SDS011;27980;52.126;5.572;2023-05-07T09:53:40;19.10;;;11.98;;
18249;SDS011;27980;52.126;5.572;2023-05-07T09:56:08;16.10;;;10.98;;
18249;SDS011;27980;52.126;5.572;2023-05-07T09:58:36;14.88;;;10.93;;
18249;SDS011;27980;52.126;5.572;2023-05-07T10:01:03;38.95;;;22.58;;
18249;SDS011;27980;52.126;5.572;2023-05-07T10:03:29;15.88;;;10.23;;
18249;SDS011;27980;52.126;5.572;2023-05-07T10:05:57;15.23;;;10.32;;
18249;SDS011;27980;52.126;5.572;2023-05-07T10:08:24;11.77;;;9.30;;
18249;SDS011;27980;52.126;5.572;2023-05-07T10:10:51;17.10;;;9.98;;
18249;SDS011;27980;52.126;5.572;2023-05-07T10:13:19;14.90;;;10.32;;
18249;SDS011;27980;52.126;5.572;2023-05-07T10:15:46;15.98;;;9.80;;
18249;SDS011;27980;52.126;5.572;2023-05-07T10:18:13;13.23;;;10.13;;
18249;SDS011;27980;52.126;5.572;2023-05-07T10:20:40;12.52;;;9.60;;
18249;SDS011;27980;52.126;5.572;2023-05-07T10:23:08;12.35;;;9.00;;
18249;SDS011;27980;52.126;5.572;2023-05-07T10:25:39;14.90;;;10.18;;
18249;SDS011;27980;52.126;5.572;2023-05-07T10:28:07;15.23;;;9.75;;
18249;SDS011;27980;52.126;5.572;2023-05-07T10:30:38;12.15;;;9.00;;
18249;SDS011;27980;52.126;5.572;2023-05-07T10:33:06;13.02;;;9.95;;
18249;SDS011;27980;52.126;5.572;2023-05-07T10:35:39;16.35;;;8.65;;
18249;SDS011;27980;52.126;5.572;2023-05-07T10:38:08;12.77;;;9.13;;
18249;SDS011;27980;52.126;5.572;2023-05-07T10:40:35;13.65;;;10.30;;
18249;SDS011;27980;52.126;5.572;2023-05-07T10:43:02;14.68;;;9.93;;
18249;SDS011;27980;52.126;5.572;2023-05-07T10:45:30;13.90;;;9.90;;
18249;SDS011;27980;52.126;5.572;2023-05-07T10:48:07;12.85;;;10.40;;
18249;SDS011;27980;52.126;5.572;2023-05-07T10:50:34;18.27;;;9.48;;
18249;SDS011;27980;52.126;5.572;2023-05-07T10:55:46;11.82;;;9.98;;
18249;SDS011;27980;52.126;5.572;2023-05-07T10:58:23;10.48;;;9.02;;
18249;SDS011;27980;52.126;5.572;2023-05-07T11:00:55;11.13;;;9.07;;
18249;SDS011;27980;52.126;5.572;2023-05-07T11:03:23;10.40;;;8.93;;
18249;SDS011;27980;52.126;5.572;2023-05-07T11:08:44;10.55;;;8.57;;
18249;SDS011;27980;52.126;5.572;2023-05-07T11:11:18;10.48;;;8.88;;
18249;SDS011;27980;52.126;5.572;2023-05-07T11:13:47;12.13;;;7.90;;
18249;SDS011;27980;52.126;5.572;2023-05-07T11:16:17;10.48;;;8.32;;
18249;SDS011;27980;52.126;5.572;2023-05-07T11:18:49;8.90;;;6.95;;
18249;SDS011;27980;52.126;5.572;2023-05-07T11:21:32;9.13;;;7.80;;
18249;SDS011;27980;52.126;5.572;2023-05-07T11:24:00;10.60;;;7.93;;
18249;SDS011;27980;52.126;5.572;2023-05-07T11:26:27;9.88;;;8.05;;
18249;SDS011;27980;52.126;5.572;2023-05-07T11:28:55;9.27;;;7.82;;
18249;SDS011;27980;52.126;5.572;2023-05-07T11:31:23;10.23;;;8.55;;
18249;SDS011;27980;52.126;5.572;2023-05-07T11:33:54;10.30;;;8.13;;
18249;SDS011;27980;52.126;5.572;2023-05-07T11:36:22;10.50;;;7.97;;
18249;SDS011;27980;52.126;5.572;2023-05-07T11:38:48;12.35;;;8.73;;
18249;SDS011;27980;52.126;5.572;2023-05-07T11:41:15;11.82;;;9.13;;
18249;SDS011;27980;52.126;5.572;2023-05-07T11:43:55;11.32;;;8.52;;
18249;SDS011;27980;52.126;5.572;2023-05-07T11:46:22;12.25;;;9.20;;
18249;SDS011;27980;52.126;5.572;2023-05-07T11:48:48;10.07;;;8.18;;
18249;SDS011;27980;52.126;5.572;2023-05-07T11:51:21;10.07;;;8.50;;
18249;SDS011;27980;52.126;5.572;2023-05-07T11:53:48;12.60;;;9.18;;
18249;SDS011;27980;52.126;5.572;2023-05-07T11:56:16;14.52;;;9.55;;
18249;SDS011;27980;52.126;5.572;2023-05-07T11:58:44;15.50;;;9.85;;
18249;SDS011;27980;52.126;5.572;2023-05-07T12:01:11;12.07;;;8.73;;
18249;SDS011;27980;52.126;5.572;2023-05-07T12:03:39;11.05;;;8.18;;
18249;SDS011;27980;52.126;5.572;2023-05-07T12:06:08;11.20;;;8.15;;
18249;SDS011;27980;52.126;5.572;2023-05-07T12:08:37;11.23;;;9.05;;
18249;SDS011;27980;52.126;5.572;2023-05-07T12:11:05;10.95;;;8.68;;
18249;SDS011;27980;52.126;5.572;2023-05-07T12:13:32;10.55;;;8.45;;
18249;SDS011;27980;52.126;5.572;2023-05-07T12:15:59;13.20;;;8.23;;
18249;SDS011;27980;52.126;5.572;2023-05-07T12:18:28;11.55;;;9.07;;
18249;SDS011;27980;52.126;5.572;2023-05-07T12:20:54;10.57;;;8.63;;
18249;SDS011;27980;52.126;5.572;2023-05-07T12:23:21;10.35;;;8.30;;
18249;SDS011;27980;52.126;5.572;2023-05-07T12:25:49;11.73;;;9.15;;
18249;SDS011;27980;52.126;5.572;2023-05-07T12:28:16;11.40;;;8.63;;
18249;SDS011;27980;52.126;5.572;2023-05-07T12:30:43;10.85;;;8.88;;
18249;SDS011;27980;52.126;5.572;2023-05-07T12:33:10;9.27;;;8.15;;
18249;SDS011;27980;52.126;5.572;2023-05-07T12:35:37;9.82;;;7.45;;
18249;SDS011;27980;52.126;5.572;2023-05-07T12:38:07;10.50;;;8.40;;
18249;SDS011;27980;52.126;5.572;2023-05-07T12:40:37;11.35;;;8.20;;
18249;SDS011;27980;52.126;5.572;2023-05-07T12:43:06;9.32;;;7.18;;
18249;SDS011;27980;52.126;5.572;2023-05-07T12:45:35;9.00;;;8.10;;
18249;SDS011;27980;52.126;5.572;2023-05-07T12:48:02;12.18;;;8.55;;
18249;SDS011;27980;52.126;5.572;2023-05-07T12:50:30;11.13;;;8.52;;
18249;SDS011;27980;52.126;5.572;2023-05-07T12:52:57;8.82;;;7.72;;
18249;SDS011;27980;52.126;5.572;2023-05-07T12:55:25;9.70;;;8.13;;
18249;SDS011;27980;52.126;5.572;2023-05-07T12:57:52;9.57;;;8.35;;
18249;SDS011;27980;52.126;5.572;2023-05-07T13:00:32;11.13;;;8.40;;
18249;SDS011;27980;52.126;5.572;2023-05-07T13:02:59;11.10;;;7.90;;
18249;SDS011;27980;52.126;5.572;2023-05-07T13:05:25;9.68;;;7.50;;
18249;SDS011;27980;52.126;5.572;2023-05-07T13:07:52;9.20;;;7.85;;
18249;SDS011;27980;52.126;5.572;2023-05-07T13:10:19;9.45;;;7.72;;
18249;SDS011;27980;52.126;5.572;2023-05-07T13:12:45;11.18;;;8.68;;
18249;SDS011;27980;52.126;5.572;2023-05-07T13:15:13;10.13;;;7.90;;
18249;SDS011;27980;52.126;5.572;2023-05-07T13:17:40;10.27;;;8.40;;
18249;SDS011;27980;52.126;5.572;2023-05-07T13:20:07;10.30;;;7.07;;
18249;SDS011;27980;52.126;5.572;2023-05-07T13:22:34;9.40;;;8.02;;
18249;SDS011;27980;52.126;5.572;2023-05-07T13:25:01;8.95;;;7.68;;
18249;SDS011;27980;52.126;5.572;2023-05-07T13:27:30;7.97;;;6.57;;
18249;SDS011;27980;52.126;5.572;2023-05-07T13:29:56;9.23;;;8.10;;
18249;SDS011;27980;52.126;5.572;2023-05-07T13:32:25;10.32;;;7.22;;
18249;SDS011;27980;52.126;5.572;2023-05-07T13:34:53;9.88;;;7.53;;
18249;SDS011;27980;52.126;5.572;2023-05-07T13:37:20;8.82;;;7.05;;
18249;SDS011;27980;52.126;5.572;2023-05-07T13:39:46;8.02;;;6.72;;
18249;SDS011;27980;52.126;5.572;2023-05-07T13:42:13;7.03;;;6.32;;
18249;SDS011;27980;52.126;5.572;2023-05-07T13:44:41;11.57;;;7.20;;
18249;SDS011;27980;52.126;5.572;2023-05-07T13:47:08;8.98;;;6.40;;
18249;SDS011;27980;52.126;5.572;2023-05-07T13:49:35;7.50;;;6.60;;
18249;SDS011;27980;52.126;5.572;2023-05-07T13:52:03;8.85;;;6.47;;
18249;SDS011;27980;52.126;5.572;2023-05-07T13:54:31;9.75;;;6.70;;
18249;SDS011;27980;52.126;5.572;2023-05-07T13:56:57;7.88;;;6.50;;
18249;SDS011;27980;52.126;5.572;2023-05-07T13:59:23;11.70;;;7.00;;
18249;SDS011;27980;52.126;5.572;2023-05-07T14:01:50;8.73;;;6.78;;
18249;SDS011;27980;52.126;5.572;2023-05-07T14:04:18;9.57;;;7.13;;
18249;SDS011;27980;52.126;5.572;2023-05-07T14:06:44;8.93;;;7.38;;
18249;SDS011;27980;52.126;5.572;2023-05-07T14:09:14;10.35;;;8.10;;
18249;SDS011;27980;52.126;5.572;2023-05-07T14:11:42;8.65;;;6.82;;
18249;SDS011;27980;52.126;5.572;2023-05-07T14:14:09;9.63;;;6.93;;
18249;SDS011;27980;52.126;5.572;2023-05-07T14:16:37;10.85;;;7.05;;
18249;SDS011;27980;52.126;5.572;2023-05-07T14:19:03;11.65;;;7.55;;
18249;SDS011;27980;52.126;5.572;2023-05-07T14:21:29;9.15;;;7.13;;
18249;SDS011;27980;52.126;5.572;2023-05-07T14:23:57;10.15;;;7.03;;
18249;SDS011;27980;52.126;5.572;2023-05-07T14:26:26;8.82;;;6.82;;
18249;SDS011;27980;52.126;5.572;2023-05-07T14:28:53;9.75;;;6.82;;
18249;SDS011;27980;52.126;5.572;2023-05-07T14:31:22;8.82;;;6.40;;
18249;SDS011;27980;52.126;5.572;2023-05-07T14:33:48;12.27;;;7.63;;
18249;SDS011;27980;52.126;5.572;2023-05-07T14:36:18;13.15;;;6.80;;
18249;SDS011;27980;52.126;5.572;2023-05-07T14:38:46;9.13;;;7.03;;
18249;SDS011;27980;52.126;5.572;2023-05-07T14:41:12;10.65;;;7.45;;
18249;SDS011;27980;52.126;5.572;2023-05-07T14:43:41;9.45;;;7.00;;
18249;SDS011;27980;52.126;5.572;2023-05-07T14:46:07;9.73;;;7.13;;